MET: Información y Pronóstico Aeronáutico

///////////////////////////////////////////////////////////////////////////////////////////////////////////////////////////////////////////////////////////////////////////////////////////////////////////////////////////////////////////////

Member for

2 años 4 meses
Enviado por meteorologia el Jue, 23/11/2017 - 11:39
24/11

24 DE NOVIEMBRE 2020

INFORMACION METEOROLOGICA AERONAUTICA (METAR) 12:00 UTC

Aeropuerto AEROPARQUE J. NEWBERY

24 - 12:00  METAR SABE 241200Z 06004KT CAVOK 25/16 Q1011 NOSIG =

Aeropuerto BAHIA BLANCA

24 - 12:00  METAR SAZB 241200Z 29009KT 9999 SCT027 23/17 Q1013 =

Aeropuerto BARILOCHE

24 - 12:00  METAR SAZS 241200Z 29015KT 9999 SCT045 SCT060 10/02 Q1014 =

Aeropuerto CATAMARCA

24 - 12:00  METAR SANC 241200Z 18018KT CAVOK 30/12 Q1006 =

Aeropuerto CHAPELCO

24 - 00:00  METAR SAZY 240000Z 27022G32KT 9999 FEW040 11/02 Q1015 =

Aeropuerto COMODORO RIVADAVIA

24 - 12:00  METAR SAVC 241200Z 29015KT 9999 FEW040 SCT200 15/M00 Q1011 =

Aeropuerto CORDOBA

24 - 12:00  METAR SACO 241200Z VRB02KT CAVOK 28/12 Q1008 NOSIG =

Aeropuerto CORRIENTES

24 - 12:00  METAR SARC 241200Z 05013KT 6000 NSC 32/15 Q1010 =

Aeropuerto EL CALAFATE

24 - 12:00  METAR SAWC 241200Z 27008KT 9999 FEW030 09/00 Q1000 =

Aeropuerto EL PALOMAR

24 - 12:00  METAR SADP 241200Z 18005KT 140V230 CAVOK 25/16 Q1011 =

Aeropuerto ESQUEL

24 - 12:00  METAR SAVE 241200Z 29012KT 9999 SCT030 SCT070 09/M02 Q1012 =

Aeropuerto EZEIZA

24 - 12:00  METAR SAEZ 241200Z 18003KT 140V220 CAVOK 25/18 Q1011 NOSIG =

Aeropuerto FORMOSA

24 - 12:00  METAR SARF 241200Z 05025KT CAVOK 32/14 Q1010 =

Aeropuerto IGUAZU/CATARATAS

24 - 12:00  METAR SARI 241200Z 09008KT CAVOK 29/15 Q1017 =

Aeropuerto JUJUY

24 - 12:00  METAR SASJ 241200Z 16003KT CAVOK 28/14 Q1010 =

Aeropuerto LA RIOJA

24 - 12:00  METAR SANL 241200Z 18011KT CAVOK 30/14 Q1007 =

Aeropuerto MALARGUE

24 - 12:00  METAR SAMM 241200Z 14005KT 9999 SCT030 16/02 Q1018 =

Aeropuerto MAR DEL PLATA

24 - 12:00  METAR SAZM 241200Z 17004KT 6000 BKN006 OVC030 19/18 Q1014 =

Aeropuerto MENDOZA

24 - 12:00  METAR SAME 241200Z 18013KT CAVOK 23/10 Q1014 =

Aeropuerto MORON

24 - 12:00  METAR SADM 241200Z 16005KT CAVOK 25/17 Q1010 =

Aeropuerto NEUQUEN

24 - 12:00  METAR SAZN 241200Z 14002KT CAVOK 17/07 Q1015 =

Aeropuerto PARANA

24 - 12:00  METAR SAAP 241200Z 36013KT 8000 NSC 29/16 Q1009 =

Aeropuerto POSADAS

24 - 12:00  METAR SARP 241200Z 05013KT CAVOK 30/16 Q1015 =

Aeropuerto PUERTO MADRYN

24 - 12:00  METAR SAVY 241200Z 20014KT CAVOK 20/03 Q1012 =

Aeropuerto RECONQUISTA

24 - 12:00  METAR SATR 241200Z 02017G28KT 8000 NSC 32/15 Q1008 =

Aeropuerto RESISTENCIA

24 - 12:00  METAR SARE 241200Z 03016KT CAVOK 32/13 Q1009 =

Aeropuerto RIO CUARTO

24 - 12:00  METAR SAOC 241200Z 23012G23KT CAVOK 22/18 Q1009 =

Aeropuerto RIO GALLEGOS

24 - 12:00  METAR SAWG 241200Z 27022KT CAVOK 11/M03 Q0997 =

Aeropuerto RIO GRANDE

24 - 12:00  METAR SAWE 241200Z 27020KT 9999 SCT015 10/03 Q0992 =

Aeropuerto ROSARIO

24 - 12:00  METAR SAAR 241200Z 36019KT CAVOK 31/15 Q1007 =

Aeropuerto SALTA

24 - 12:00  METAR SASA 241200Z 00000KT CAVOK 25/14 Q1012 =

Aeropuerto SAN FERNANDO

24 - 12:00  METAR SADF 241200Z 18005KT 9999 FEW038 BKN200 27/16 Q1011 =

Aeropuerto SAN JUAN

24 - 12:00  METAR SANU 241200Z 16020KT CAVOK 25/12 Q1014 =

Aeropuerto SAN LUIS

24 - 12:00  METAR SAOU 241200Z 18013G24KT 9999 SCT035 22/17 Q1012 =

Aeropuerto SAN RAFAEL

24 - 12:00  METAR SAMR 241200Z 09003KT 9999 SCT040 19/02 Q1017 =

Aeropuerto SANTA ROSA

24 - 12:00  METAR SAZR 241200Z 14011KT 9999 OVC030 19/17 Q1013 =

Aeropuerto SANTIAGO DEL ESTERO

24 - 12:00  METAR SANE 241200Z 02006KT CAVOK 30/14 Q1004 =

Aeropuerto SAUCE VIEJO

24 - 12:00  METAR SAAV 241200Z 04014KT CAVOK 31/15 Q1008 =

Aeropuerto TANDIL

24 - 12:00  METAR SAZT 241200Z 10009KT 5000 RA SCT004 OVC040 17/17 Q1014 =

Aeropuerto TERMAS DE RIO HONDO

24 - 12:00  METAR SANR 241200Z 05013KT CAVOK 31/10 Q1003 =

Aeropuerto TRELEW

24 - 12:00  METAR SAVT 241200Z 23008KT 9999 FEW035 BKN200 18/00 Q1013 =

Aeropuerto TUCUMAN

24 - 12:00  METAR SANT 241200Z 23004KT CAVOK 28/17 Q1005 =

Aeropuerto USHUAIA

24 - 12:00  METAR SAWH 241200Z 00000KT 9999 SCT045 09/M01 Q0988 =

Aeropuerto VIEDMA

24 - 12:00  METAR SAVV 241200Z 18015KT CAVOK 23/04 Q1011 =

Aeropuerto VILLA REYNOLDS

24 - 12:00  METAR SAOR 241200Z 14009KT 9999 SCT008 SCT012 19/17 Q1012 REBR =

 PRONOSTICO DE AERODROMO (TAF) 11:00 UTC

Estación AEROPARQUE J. NEWBERY

24 - 11:00  TAF SABE 241100Z 2412/2512 05010KT CAVOK TX29/2418Z TN21/2509Z BECMG 2414/2416 09015KT 9999 SCT035 OVC100 PROB30 TEMPO 2416/2420 13015KT 8000 SHRA BKN035 FEW050TCU OVC060 BECMG 2421/2424 15015G25KT 6000 TSRA SCT025 OVC040 FEW040CB BECMG 2502/2504 VRB10KT 7000 RA OVC035 BECMG 2505/2508 5000 -TSRA SCT020 OVC030 FEW040CB =

Estación BAHIA BLANCA

24 - 11:00  TAF SAZB 241100Z 2412/2512 32010KT 9999 FEW020 TX25/2418Z TN14/2509Z BECMG 2413/2415 16015G25KT 9999 SCT035 TEMPO 2420/2501 7000 SHRA SCT020 BKN040 FEW050TCU BECMG 2501/2504 20010KT CAVOK BECMG 2510/2512 27015G25KT =

Estación BARILOCHE

24 - 11:00  TAF SAZS 241100Z 2412/2512 29015KT 9999 SCT030 SCT040 TX15/2418Z TN02/2509Z BECMG 2414/2417 29020G30KT PROB30 TEMPO 2415/2421 8000 -RA BKN030 BECMG 2422/2501 27010KT 9999 SCT025 BECMG 2507/2510 29025KT 4000 SHRA SCT010 OVC030 FEW040TCU =

Estación CATAMARCA

24 - 11:00  TAF SANC 241100Z 2412/2512 23015KT 8000 SCT045 TX36/2418Z TN23/2510Z BECMG 2421/2424 02010KT 9999 SCT040 FEW050TCU PROB30 2502/2503 21010KT 7000 TSSHRA BKN035 FEW050CB =

Estación CHAPELCO

24 - 11:00  TAF SAZY 241100Z 2412/2512 NIL =

Estación COMODORO RIVADAVIA

24 - 11:00  TAF SAVC 241100Z 2412/2512 25015KT 9999 FEW040 TX22/2418Z TN10/2508Z BECMG 2413/2415 27020G30KT TEMPO 2418/2423 29025G35KT BECMG 2508/2510 29030G40KT =

Estación CORDOBA

24 - 11:00  TAF SACO 241100Z 2412/2512 02015KT 9999 FEW035 TX36/2418Z TN21/2510Z BECMG 2418/2421 02010KT 9999 SCT030 FEW040TCU TEMPO 2422/2500 18010KT 6000 SHRA BKN030 FEW040CB 2503/2506 18010KT 8000 RA BKN020 FEW040CB =

Estación CORRIENTES

24 - 11:00  TAF SARC 241100Z 2412/2512 09010KT 6000 NSC TX40/2419Z TN25/2509Z BECMG 2415/2417 02015G25KT =

Estación EL CALAFATE

24 - 11:00  TAF SAWC 241100Z 2412/2512 20005KT 9999 DZ FEW025 BKN090 TX15/2419Z TN03/2510Z BECMG 2413/2415 27010KT =

Estación EL PALOMAR

24 - 11:00  TAF SADP 241100Z 2412/2512 25006KT 9999 SCT040 TX30/2418Z TN20/2508Z BECMG 2413/2415 36010KT 9999 SCT030 BKN060 BECMG 2417/2420 09010KT 8000 RA SCT030 BKN050 FEW050CB TEMPO 2419/2501 16015G25KT 5000 TSRA SCT025 BKN045 FEW050CB TEMPO 2503/2507 3000 TSRA SCT015 BKN040 FEW050CB =

Estación ESQUEL

24 - 11:00  TAF SAVE 241100Z 2412/2512 32010KT 9999 FEW030 SCT070 TX16/2419Z TN00/2510Z BECMG 2501/2503 32005KT BECMG 2510/2512 27010KT 5000 TSRA SCT010 SCT040CB OVC050 =

Estación EZEIZA

24 - 11:00  TAF SAEZ 241100Z 2412/2512 VRB03KT CAVOK TX30/2418Z TN20/2508Z BECMG 2413/2415 36010KT 9999 SCT030 BKN060 BECMG 2417/2420 09010KT 8000 RA SCT030 BKN050 FEW050CB TEMPO 2419/2501 16015G25KT 5000 TSRA SCT025 BKN045 FEW050CB TEMPO 2503/2507 3000 TSRA SCT015 BKN040 FEW050CB =

Estación FORMOSA

24 - 11:00  TAF SARF 241100Z 2412/2512 05020G30KT CAVOK TX40/2419Z TN25/2509Z =

Estación IGUAZU/CATARATAS

24 - 11:00  TAF SARI 241100Z 2412/2512 05010KT CAVOK TX38/2419Z TN22/2509Z =

Estación JUJUY

24 - 11:00  TAF SASJ 241100Z 2412/2512 05010KT 9999 SCT035 FEW040TCU TX33/2418Z TN23/2510Z TEMPO 2422/2500 07015KT 5000 TSSHRA BKN025 FEW040CB BECMG 2503/2506 32005KT 9999 SCT030 =

Estación LA RIOJA

24 - 11:00  TAF SANL 241100Z 2412/2512 18015KT 9999 FEW045 TX37/2418Z TN24/2510Z BECMG 2501/2504 VRB03KT 8000 RA BKN035 FEW045CB BECMG 2508/2511 19010KT 7000 TSRA BKN030 FEW040CB =

Estación MAR DEL PLATA

24 - 11:30  TAF SAZM 241100Z 2412/2512 36005KT 4000 RA BKN010 FEW040TCU OVC050 TX22/2418Z TN17/2510Z TEMPO 2416/2420 02015KT 5000 TSRA SCT020 FEW050CB OVC050 BECNG 2505/2508 34010KT =

Estación MENDOZA

24 - 11:00  TAF SAME 241100Z 2412/2512 18015KT 9999 FEW040 TX29/2420Z TN19/2510Z BECMG 2416/2418 16010KT BECMG 1422/2500 VRB03KT =

Estación NEUQUEN

24 - 11:00  TAF SAZN 241100Z 2412/2512 29010KT CAVOK TX27/2419Z TN13/2510Z BECMG 2418/2421 25015G25KT 9999 SCT040 PROB30 TEMPO 2421/2424 8000 -RA BKN040 BECMG 2501/2504 25015KT CAVOK BECMG 2510/2512 27020KT =

Estación PARANA

24 - 11:00  TAF SAAP 241100Z 2412/2512 36015KT CAVOK TX38/2418Z TN22/2509Z BECMG 2413/2415 36015G25KT BECMG 2418/2820 36015KT 9999 FEW050TCU BECMG 2500/2503 16010KT 8000 RA SCT040 FEW050TCU TEMPO 2501/2506 6000 TSRA SCT050 FEW050CB =

Estación POSADAS

24 - 11:00  TAF SARP 241100Z 2412/2512 05015KT CAVOK TX40/2419Z TN25/2509Z =

Estación RESISTENCIA

24 - 11:00  TAF SARE 241100Z 2412/2512 05015G25KT 6000 NSC TX40/2419Z TN25/2509Z =

Estación RIO CUARTO

24 - 11:00  TAF SAOC 241100Z 2412/2512 18010KT 9999 SCT025 FEW045TCU TX33/2418Z TN18/2510Z BECMG 2500/2503 20010G20KT 5000 TSRA BKN020 FEW040CB BECMG 2508/2511 23010KT 9999 SCT035 =

Estación RIO GALLEGOS

24 - 11:00  TAF SAWG 241100Z 2412/2512 27025G35KT CAVOK TX15/2419Z TN04/2510Z BECMG 2414/2416 27015KT 9999 RA SCT030 OVC045 TEMPO 2420/2424 36010KT 9000 SHRA SCT025 OVC045 BECMG 2502/2504 05010KT 9999 NSW SCT035 OVC070 BECMG 2510/2512 20015KT =

Estación RIO GRANDE

24 - 11:00  TAF SAWE 241100Z 2412/2512 29015G25KT CAVOK TX12/2419Z TN03/2508Z BECMG 2413/2415 27020G30KT 9999 SHRA SCT030 SCT040TCU BKN050 BECMG 2423/2501 29015KT 9999 NSW FEW030 OVC090 BECMG 2508/2510 25010KT 9999 -RA BKN020 OVC050 =

Estación ROSARIO

24 - 11:00  TAF SAAR 241100Z 2412/2512 03010KT 9999 SCT040 TX37/2418Z TN20/2509Z BECMG 2416/2419 SCT035 FEW050TCU PROB30 TEMPO 2419/2423 8000 SHRA BKN040 FEW050CB BECMG 2423/2502 15015G25KT 5000 TSRA SCT025 OVC040 FEW045CB BECMG 2503/2506 15010KT 6000 -RADZ OVC040 =

Estación SALTA

24 - 11:00  TAF SASA 241100Z 2412/2512 05010KT 9999 SCT030 FEW040TCU TX32/2418Z TN22/2510Z TEMPO 2500/2502 05015KT 7000 TSSHRA BKN025 FEW040CB BECMG 2503/2506 20005KT 9999 BKN020 FEW040TCU =

Estación SAN FERNANDO

24 - 11:00  TAF SADF 241100Z 2412/2512 18010KT 9999 SCT040 FEW045TCU TX30/2417Z TN20/2509Z BECMG 2418/2420 09015KT 7000 SHRA BKN030 SCT040TCU BECMG 2422/2424 07015G25KT 5000 TSRA BKN030 FEW045CB OVC050 BECMG 2508/2510 18015KT 9999 NSW SCT025 BKN100 =

Estación SAN JUAN

24 - 11:00  TAF SANU 241100Z 2412/2512 18020KT CAVOK TX30/2421Z TN19/2509Z TEMPO 2412/2414 18025KT 3000 DU NSC BECMG 2417/2419 18010KT BECMG 2509/2511 18020KT =

Estación SAN LUIS

24 - 11:00  TAF SAOU 241100Z 2412/2512 14015KT 9999 FEW030 TX29/2419Z TN18/2509Z BECMG 2423/2501 14005KT BECMG 2508/2510 09015KT =

Estación SAN RAFAEL

24 - 11:00  TAF SAMR 241100Z 2412/2512 16015KT CAVOK TX28/2420Z TN11/2510Z BECMG 2416/2418 11005KT BECMG 2501/2503 16010KT BECMG 2507/2509 VRB03KT =

Estación SANTA ROSA

24 - 11:00  TAF SAZR 241100Z 2412/2512 14010KT 9999 SCT030 TX30/2418Z TN15/2509Z PROB30 TEMPO 2413/2416 8000 RADZ 9999 SCT025 BECMG 2419/2421 03010KT CAVOK PROB40 TEMPO 2501/2505 20015G25KT 5000 TSRA FEW040CB BECMG 2506/2508 22010KT =

Estación SANTIAGO DEL ESTERO

24 - 11:00  TAF SANE 241100Z 2412/2512 05010G25KT 6000 NSC TX40/2418Z TN24/2510Z BECMG 2501/2503 02005KT 8000 SHRA SCT030 FEW040CB BECMG 2506/2509 20010KT 9999 SCT035 =

Estación SAUCE VIEJO

24 - 11:00  TAF SAAV 241100Z 2412/2512 05010KT CAVOK TX38/2418Z TN22/2509Z BECMG 2413/2415 36015G25KT BECMG 2418/2820 36015KT 9999 FEW050TCU BECMG 2500/2503 16010KT 8000 RA SCT040 FEW050TCU TEMPO 2501/2506 6000 TSRA SCT050 FEW050CB =

Estación TERMAS DE RIO HONDO

24 - 11:00  TAF SANR 241100Z 2412/2512 NIL =

Estación TRELEW

24 - 11:00  TAF SAVT 241100Z 2412/2512 23010KT 9999 FEW035 BKN070 TX28/2418Z TN12/2510Z BECMG 2413/2415 27010KT BECMG 2419/2421 36015KT BECMG 2504/2506 25010KT =

Estación TUCUMAN

24 - 11:00  TAF SANT 241100Z 2412/2512 23010KT 9999 FEW040 TX37/2418Z TN22/2510Z BECMG 2423/2502 23005KT 8000 RA BKN020 FEW045CB PROB40 2506/2509 34005KT 5000 TSRA BKN035 FEW045CB =

Estación USHUAIA

24 - 11:00  TAF SAWH 241100Z 2412/2512 34005KT 9999 FEW035 TX13/2419Z TN00/2508Z BECMG 2416/2415 27005KT 7000 SHRA SCT030 OVC050 BECMG 2423/2501 35005KT 1000 BCFG BKN018 OVC025 TEMPO 2510/2512 32005KT 8000 BRDZ SCT030 =

Estación VIEDMA

24 - 11:00  TAF SAVV 241100Z 2412/2512 18015KT CAVOK TX33/2418Z TN16/2410Z BECMG 2414/2416 14010KT BECMG 2419/2421 05010KT BECMG 2501/2503 36010KT BECMG 2509/2511 27015KT =